Messwerte Marion

Temperatur

Temperatur
°C
1618826400 6.00 6.00 4
1618830000 7.00 7.00 5
1618833600 8.00 8.00 6
1618837200 9.00 9.00
1618840800 10.00 10.00
1618844400 11.00 11.00 14
1618848000 12.00 12.00 17
1618851600 13.00 13.00 16
1618855200 14.00 14.00 17
1618858800 15.00 15.00 18
1618862400 16.00 16.00 17
1618866000 17.00 17.00 18
1618869600 18.00 18.00 18
1618873200 19.00 19.00 17
1618876800 20.00 20.00
1618880400 21.00 21.00 16
1618884000 22.00 22.00 10
1618887600 23.00 23.00 9
1618891200 0.00 0.00 8
1618894800 1.00 1.00 8
1618898400 2.00 2.00 6
1618902000 3.00 3.00 6
1618905600 4.00 4.00 4
1618909200 5.00 5.00 3

Aktuellste Messwerte

Wettercharakter
Wetter: klar
Temperatur
3 °C
Feuchtigkeit
75 %
Wind
5 km/hWindrichtung: Nordwest
Luftdruck
1015 hPa
Messzeit: 20. April 2021, 6.00Datenquelle: METAR

Weitere Messstationen in der Nähe

Messstation Temperatur Entfernung
Mansfield 3 °C 51 km
Columbus 4 °C 60 km
Findlay 4 °C 67 km
Columbus 6 °C 71 km
Columbus 5 °C 80 km
Lima 4 °C 82 km
Newark 5 °C 84 km

Wind

Windrichtung Böen Mittelwind
° km/h km/h
1618826400 6.00 5.00 - 6.00 200° 5
1618830000 7.00 6.00 - 7.00 200° 5
1618833600 8.00 7.00 - 8.00 190° 5
1618837200 9.00 8.00 - 9.00
1618840800 10.00 9.00 - 10.00
1618844400 11.00 10.00 - 11.00 240° 30 20
1618848000 12.00 11.00 - 12.00 250° 30 15
1618851600 13.00 12.00 - 13.00 260° 40 30
1618855200 14.00 13.00 - 14.00 260° 35 25
1618858800 15.00 14.00 - 15.00 230° 40 30
1618862400 16.00 15.00 - 16.00 240° 45 25
1618866000 17.00 16.00 - 17.00 250° 45 25
1618869600 18.00 17.00 - 18.00 250° 40 30
1618873200 19.00 18.00 - 19.00 230° 50 35
1618876800 20.00 19.00 - 20.00
1618880400 21.00 20.00 - 21.00 250° 10
1618884000 22.00 21.00 - 22.00 330° 40 25
1618887600 23.00 22.00 - 23.00 320° 15
1618891200 0.00 23.00 - 0.00 320° 15
1618894800 1.00 0.00 - 1.00 340° 20
1618898400 2.00 1.00 - 2.00 330° 20
1618902000 3.00 2.00 - 3.00 320° 20
1618905600 4.00 3.00 - 4.00 330° 5
1618909200 5.00 4.00 - 5.00 300° 5

Ihre Wetterstation

Fehlt Ihre Wetterstation auf unserem Portal?

Schreiben Sie an network@meteonews.ch

Klima

Wann ist es am wärmsten? Wann regnet es am wenigsten? Unsere Klimadaten geben Auskunft.